sensor_id;sensor_type;location;lat;lon;timestamp;P1;durP1;ratioP1;P2;durP2;ratioP2
45041;SDS011;30779;52.096;4.410;2022-10-16T00:02:38;3.08;;;1.15;;
45041;SDS011;30779;52.096;4.410;2022-10-16T00:05:40;3.35;;;1.30;;
45041;SDS011;30779;52.096;4.410;2022-10-16T00:08:42;3.58;;;1.10;;
45041;SDS011;30779;52.096;4.410;2022-10-16T00:11:43;2.42;;;1.10;;
45041;SDS011;30779;52.096;4.410;2022-10-16T00:14:44;3.75;;;1.17;;
45041;SDS011;30779;52.096;4.410;2022-10-16T00:17:45;3.30;;;1.05;;
45041;SDS011;30779;52.096;4.410;2022-10-16T00:20:46;3.38;;;1.20;;
45041;SDS011;30779;52.096;4.410;2022-10-16T00:23:50;3.47;;;1.17;;
45041;SDS011;30779;52.096;4.410;2022-10-16T00:26:51;3.22;;;1.10;;
45041;SDS011;30779;52.096;4.410;2022-10-16T00:29:52;2.83;;;1.15;;
45041;SDS011;30779;52.096;4.410;2022-10-16T00:32:53;4.38;;;1.15;;
45041;SDS011;30779;52.096;4.410;2022-10-16T00:35:55;2.17;;;0.90;;
45041;SDS011;30779;52.096;4.410;2022-10-16T00:38:58;1.88;;;1.00;;
45041;SDS011;30779;52.096;4.410;2022-10-16T00:42:00;1.65;;;1.00;;
45041;SDS011;30779;52.096;4.410;2022-10-16T00:45:02;2.80;;;1.05;;
45041;SDS011;30779;52.096;4.410;2022-10-16T00:48:03;3.88;;;1.63;;
45041;SDS011;30779;52.096;4.410;2022-10-16T00:51:04;1.80;;;0.88;;
45041;SDS011;30779;52.096;4.410;2022-10-16T00:54:08;0.85;;;0.80;;
45041;SDS011;30779;52.096;4.410;2022-10-16T00:57:10;2.33;;;0.98;;
45041;SDS011;30779;52.096;4.410;2022-10-16T01:00:16;2.72;;;1.08;;
45041;SDS011;30779;52.096;4.410;2022-10-16T01:03:39;1.88;;;0.90;;
45041;SDS011;30779;52.096;4.410;2022-10-16T01:10:21;2.22;;;1.02;;
45041;SDS011;30779;52.096;4.410;2022-10-16T01:13:31;5.82;;;1.00;;
45041;SDS011;30779;52.096;4.410;2022-10-16T01:16:40;2.75;;;1.33;;
45041;SDS011;30779;52.096;4.410;2022-10-16T01:28:49;3.35;;;1.63;;
45041;SDS011;30779;52.096;4.410;2022-10-16T01:32:00;1.80;;;1.20;;
45041;SDS011;30779;52.096;4.410;2022-10-16T01:35:09;3.35;;;1.48;;
45041;SDS011;30779;52.096;4.410;2022-10-16T01:38:12;3.13;;;1.40;;
45041;SDS011;30779;52.096;4.410;2022-10-16T01:41:23;3.85;;;1.40;;
45041;SDS011;30779;52.096;4.410;2022-10-16T01:44:26;2.95;;;1.60;;
45041;SDS011;30779;52.096;4.410;2022-10-16T01:47:29;3.92;;;1.50;;
45041;SDS011;30779;52.096;4.410;2022-10-16T01:50:32;2.17;;;1.50;;
45041;SDS011;30779;52.096;4.410;2022-10-16T01:53:34;2.53;;;1.30;;
45041;SDS011;30779;52.096;4.410;2022-10-16T01:56:35;2.33;;;1.17;;
45041;SDS011;30779;52.096;4.410;2022-10-16T01:59:40;5.22;;;1.40;;
45041;SDS011;30779;52.096;4.410;2022-10-16T02:02:43;1.70;;;1.38;;
45041;SDS011;30779;52.096;4.410;2022-10-16T02:08:46;4.82;;;2.03;;
45041;SDS011;30779;52.096;4.410;2022-10-16T02:11:47;3.15;;;1.77;;
45041;SDS011;30779;52.096;4.410;2022-10-16T02:14:49;2.05;;;1.20;;
45041;SDS011;30779;52.096;4.410;2022-10-16T02:17:50;4.20;;;1.40;;
45041;SDS011;30779;52.096;4.410;2022-10-16T02:24:17;3.30;;;1.67;;
45041;SDS011;30779;52.096;4.410;2022-10-16T02:27:20;3.17;;;1.63;;
45041;SDS011;30779;52.096;4.410;2022-10-16T02:30:30;3.72;;;1.90;;
45041;SDS011;30779;52.096;4.410;2022-10-16T02:33:34;4.32;;;1.70;;
45041;SDS011;30779;52.096;4.410;2022-10-16T02:36:36;3.50;;;1.88;;
45041;SDS011;30779;52.096;4.410;2022-10-16T02:39:37;2.10;;;1.58;;
45041;SDS011;30779;52.096;4.410;2022-10-16T02:42:39;2.47;;;1.80;;
45041;SDS011;30779;52.096;4.410;2022-10-16T02:45:41;3.30;;;1.80;;
45041;SDS011;30779;52.096;4.410;2022-10-16T02:48:42;3.95;;;1.70;;
45041;SDS011;30779;52.096;4.410;2022-10-16T02:51:43;3.03;;;1.63;;
45041;SDS011;30779;52.096;4.410;2022-10-16T02:54:44;3.45;;;2.10;;
45041;SDS011;30779;52.096;4.410;2022-10-16T02:57:45;3.40;;;1.67;;
45041;SDS011;30779;52.096;4.410;2022-10-16T03:00:46;3.63;;;2.50;;
45041;SDS011;30779;52.096;4.410;2022-10-16T03:03:47;4.05;;;1.95;;
45041;SDS011;30779;52.096;4.410;2022-10-16T03:06:48;4.43;;;1.98;;
45041;SDS011;30779;52.096;4.410;2022-10-16T03:09:49;2.50;;;1.63;;
45041;SDS011;30779;52.096;4.410;2022-10-16T03:12:50;5.93;;;2.10;;
45041;SDS011;30779;52.096;4.410;2022-10-16T03:15:51;3.25;;;1.80;;
45041;SDS011;30779;52.096;4.410;2022-10-16T03:18:52;3.05;;;1.40;;
45041;SDS011;30779;52.096;4.410;2022-10-16T03:21:53;2.45;;;1.45;;
45041;SDS011;30779;52.096;4.410;2022-10-16T03:24:54;4.22;;;1.52;;
45041;SDS011;30779;52.096;4.410;2022-10-16T03:27:55;2.05;;;1.13;;
45041;SDS011;30779;52.096;4.410;2022-10-16T03:30:56;3.35;;;1.30;;
45041;SDS011;30779;52.096;4.410;2022-10-16T03:33:57;2.15;;;1.38;;
45041;SDS011;30779;52.096;4.410;2022-10-16T03:36:58;2.92;;;1.30;;
45041;SDS011;30779;52.096;4.410;2022-10-16T03:39:59;2.28;;;1.15;;
45041;SDS011;30779;52.096;4.410;2022-10-16T03:43:00;5.10;;;1.42;;
45041;SDS011;30779;52.096;4.410;2022-10-16T03:46:01;1.88;;;1.30;;
45041;SDS011;30779;52.096;4.410;2022-10-16T03:49:02;2.58;;;1.17;;
45041;SDS011;30779;52.096;4.410;2022-10-16T03:52:03;6.55;;;1.20;;
45041;SDS011;30779;52.096;4.410;2022-10-16T03:55:04;2.75;;;1.35;;
45041;SDS011;30779;52.096;4.410;2022-10-16T03:58:06;5.15;;;1.73;;
45041;SDS011;30779;52.096;4.410;2022-10-16T04:01:07;4.65;;;1.88;;
45041;SDS011;30779;52.096;4.410;2022-10-16T04:04:08;4.45;;;1.50;;
45041;SDS011;30779;52.096;4.410;2022-10-16T04:07:09;4.30;;;2.05;;
45041;SDS011;30779;52.096;4.410;2022-10-16T04:10:10;2.72;;;1.35;;
45041;SDS011;30779;52.096;4.410;2022-10-16T04:13:11;2.10;;;1.20;;
45041;SDS011;30779;52.096;4.410;2022-10-16T04:16:12;4.05;;;1.95;;
45041;SDS011;30779;52.096;4.410;2022-10-16T04:19:14;3.28;;;1.20;;
45041;SDS011;30779;52.096;4.410;2022-10-16T04:22:15;2.35;;;1.00;;
45041;SDS011;30779;52.096;4.410;2022-10-16T04:25:16;2.47;;;1.58;;
45041;SDS011;30779;52.096;4.410;2022-10-16T04:28:17;4.10;;;1.75;;
45041;SDS011;30779;52.096;4.410;2022-10-16T04:31:17;4.15;;;1.50;;
45041;SDS011;30779;52.096;4.410;2022-10-16T04:34:19;2.72;;;1.20;;
45041;SDS011;30779;52.096;4.410;2022-10-16T04:37:23;4.45;;;1.30;;
45041;SDS011;30779;52.096;4.410;2022-10-16T04:40:24;4.45;;;1.40;;
45041;SDS011;30779;52.096;4.410;2022-10-16T04:43:25;4.32;;;1.85;;
45041;SDS011;30779;52.096;4.410;2022-10-16T04:46:26;2.20;;;1.20;;
45041;SDS011;30779;52.096;4.410;2022-10-16T04:49:27;3.45;;;1.60;;
45041;SDS011;30779;52.096;4.410;2022-10-16T04:52:28;3.03;;;1.40;;
45041;SDS011;30779;52.096;4.410;2022-10-16T04:55:31;4.78;;;1.85;;
45041;SDS011;30779;52.096;4.410;2022-10-16T04:58:32;2.83;;;1.30;;
45041;SDS011;30779;52.096;4.410;2022-10-16T05:01:33;5.50;;;1.80;;
45041;SDS011;30779;52.096;4.410;2022-10-16T05:04:34;3.72;;;1.60;;
45041;SDS011;30779;52.096;4.410;2022-10-16T05:07:35;3.30;;;1.80;;
45041;SDS011;30779;52.096;4.410;2022-10-16T05:10:36;2.15;;;1.50;;
45041;SDS011;30779;52.096;4.410;2022-10-16T05:13:37;5.30;;;1.85;;
45041;SDS011;30779;52.096;4.410;2022-10-16T05:16:38;3.83;;;2.20;;
45041;SDS011;30779;52.096;4.410;2022-10-16T05:19:39;4.78;;;1.65;;
45041;SDS011;30779;52.096;4.410;2022-10-16T05:22:40;6.35;;;1.88;;
45041;SDS011;30779;52.096;4.410;2022-10-16T05:25:41;3.38;;;2.20;;
45041;SDS011;30779;52.096;4.410;2022-10-16T05:28:42;7.25;;;2.42;;
45041;SDS011;30779;52.096;4.410;2022-10-16T05:31:43;6.75;;;2.70;;
45041;SDS011;30779;52.096;4.410;2022-10-16T05:34:44;5.43;;;3.22;;
45041;SDS011;30779;52.096;4.410;2022-10-16T05:37:46;5.18;;;2.53;;
45041;SDS011;30779;52.096;4.410;2022-10-16T05:40:51;7.90;;;2.28;;
45041;SDS011;30779;52.096;4.410;2022-10-16T05:43:56;4.80;;;2.53;;
45041;SDS011;30779;52.096;4.410;2022-10-16T05:46:57;5.20;;;2.53;;
45041;SDS011;30779;52.096;4.410;2022-10-16T05:49:58;6.20;;;2.47;;
45041;SDS011;30779;52.096;4.410;2022-10-16T05:52:59;3.95;;;2.60;;
45041;SDS011;30779;52.096;4.410;2022-10-16T05:56:00;7.38;;;2.75;;
45041;SDS011;30779;52.096;4.410;2022-10-16T05:59:02;9.80;;;3.20;;
45041;SDS011;30779;52.096;4.410;2022-10-16T06:02:04;5.00;;;2.40;;
45041;SDS011;30779;52.096;4.410;2022-10-16T06:05:05;3.10;;;2.08;;
45041;SDS011;30779;52.096;4.410;2022-10-16T06:08:06;7.32;;;2.63;;
45041;SDS011;30779;52.096;4.410;2022-10-16T06:11:08;3.70;;;1.90;;
45041;SDS011;30779;52.096;4.410;2022-10-16T06:14:12;5.55;;;2.28;;
45041;SDS011;30779;52.096;4.410;2022-10-16T06:17:13;4.10;;;2.40;;
45041;SDS011;30779;52.096;4.410;2022-10-16T06:20:17;3.45;;;2.20;;
45041;SDS011;30779;52.096;4.410;2022-10-16T06:23:18;5.75;;;2.13;;
45041;SDS011;30779;52.096;4.410;2022-10-16T06:26:20;3.40;;;1.80;;
45041;SDS011;30779;52.096;4.410;2022-10-16T06:29:22;4.65;;;1.67;;
45041;SDS011;30779;52.096;4.410;2022-10-16T06:32:23;2.40;;;1.30;;
45041;SDS011;30779;52.096;4.410;2022-10-16T06:35:24;3.25;;;1.80;;
45041;SDS011;30779;52.096;4.410;2022-10-16T06:38:25;6.53;;;1.85;;
45041;SDS011;30779;52.096;4.410;2022-10-16T06:41:26;4.80;;;1.92;;
45041;SDS011;30779;52.096;4.410;2022-10-16T06:44:27;5.22;;;1.95;;
45041;SDS011;30779;52.096;4.410;2022-10-16T06:47:28;4.88;;;1.65;;
45041;SDS011;30779;52.096;4.410;2022-10-16T06:50:29;7.07;;;1.58;;
45041;SDS011;30779;52.096;4.410;2022-10-16T06:53:31;8.07;;;2.15;;
45041;SDS011;30779;52.096;4.410;2022-10-16T06:56:33;6.25;;;1.70;;
45041;SDS011;30779;52.096;4.410;2022-10-16T06:59:34;6.60;;;1.67;;
45041;SDS011;30779;52.096;4.410;2022-10-16T07:02:35;6.18;;;1.63;;
45041;SDS011;30779;52.096;4.410;2022-10-16T07:05:37;4.75;;;1.90;;
45041;SDS011;30779;52.096;4.410;2022-10-16T07:08:39;6.68;;;1.63;;
45041;SDS011;30779;52.096;4.410;2022-10-16T07:11:40;4.32;;;2.03;;
45041;SDS011;30779;52.096;4.410;2022-10-16T07:14:43;10.13;;;2.72;;
45041;SDS011;30779;52.096;4.410;2022-10-16T07:17:47;4.68;;;1.90;;
45041;SDS011;30779;52.096;4.410;2022-10-16T07:20:48;5.38;;;2.30;;
45041;SDS011;30779;52.096;4.410;2022-10-16T07:23:50;5.90;;;2.22;;
45041;SDS011;30779;52.096;4.410;2022-10-16T07:26:51;4.85;;;2.00;;
45041;SDS011;30779;52.096;4.410;2022-10-16T07:29:52;6.60;;;2.50;;
45041;SDS011;30779;52.096;4.410;2022-10-16T07:32:53;8.68;;;3.45;;
45041;SDS011;30779;52.096;4.410;2022-10-16T07:35:54;7.10;;;2.75;;
45041;SDS011;30779;52.096;4.410;2022-10-16T07:38:55;5.50;;;3.05;;
45041;SDS011;30779;52.096;4.410;2022-10-16T07:41:56;8.32;;;2.90;;
45041;SDS011;30779;52.096;4.410;2022-10-16T07:44:57;4.88;;;2.47;;
45041;SDS011;30779;52.096;4.410;2022-10-16T07:47:58;4.20;;;1.90;;
45041;SDS011;30779;52.096;4.410;2022-10-16T07:51:00;4.93;;;2.58;;
45041;SDS011;30779;52.096;4.410;2022-10-16T07:54:04;5.85;;;2.17;;
45041;SDS011;30779;52.096;4.410;2022-10-16T07:57:05;10.05;;;2.80;;
45041;SDS011;30779;52.096;4.410;2022-10-16T08:00:07;3.92;;;1.92;;
45041;SDS011;30779;52.096;4.410;2022-10-16T08:03:13;7.00;;;1.88;;
45041;SDS011;30779;52.096;4.410;2022-10-16T08:06:14;9.38;;;2.20;;
45041;SDS011;30779;52.096;4.410;2022-10-16T08:09:15;6.13;;;1.95;;
45041;SDS011;30779;52.096;4.410;2022-10-16T08:12:17;6.65;;;2.03;;
45041;SDS011;30779;52.096;4.410;2022-10-16T08:15:18;8.00;;;2.15;;
45041;SDS011;30779;52.096;4.410;2022-10-16T08:18:19;4.97;;;2.00;;
45041;SDS011;30779;52.096;4.410;2022-10-16T08:21:21;6.00;;;2.33;;
45041;SDS011;30779;52.096;4.410;2022-10-16T08:24:23;8.88;;;2.10;;
45041;SDS011;30779;52.096;4.410;2022-10-16T08:27:24;8.02;;;2.05;;
45041;SDS011;30779;52.096;4.410;2022-10-16T08:30:25;4.28;;;2.05;;
45041;SDS011;30779;52.096;4.410;2022-10-16T08:33:26;7.20;;;1.73;;
45041;SDS011;30779;52.096;4.410;2022-10-16T08:36:27;5.57;;;1.77;;
45041;SDS011;30779;52.096;4.410;2022-10-16T08:39:28;10.63;;;2.85;;
45041;SDS011;30779;52.096;4.410;2022-10-16T08:42:32;5.88;;;2.03;;
45041;SDS011;30779;52.096;4.410;2022-10-16T08:45:43;6.38;;;2.35;;
45041;SDS011;30779;52.096;4.410;2022-10-16T08:48:53;7.60;;;3.17;;
45041;SDS011;30779;52.096;4.410;2022-10-16T08:51:55;6.93;;;1.80;;
45041;SDS011;30779;52.096;4.410;2022-10-16T08:54:57;7.78;;;2.10;;
45041;SDS011;30779;52.096;4.410;2022-10-16T08:57:58;7.28;;;1.73;;
45041;SDS011;30779;52.096;4.410;2022-10-16T09:01:03;7.22;;;1.75;;
45041;SDS011;30779;52.096;4.410;2022-10-16T09:07:14;3.85;;;2.00;;
45041;SDS011;30779;52.096;4.410;2022-10-16T09:16:46;6.95;;;2.40;;
45041;SDS011;30779;52.096;4.410;2022-10-16T09:19:51;7.40;;;2.08;;
45041;SDS011;30779;52.096;4.410;2022-10-16T09:26:09;6.30;;;1.92;;
45041;SDS011;30779;52.096;4.410;2022-10-16T09:29:21;8.75;;;2.25;;
45041;SDS011;30779;52.096;4.410;2022-10-16T09:32:24;9.20;;;2.63;;
45041;SDS011;30779;52.096;4.410;2022-10-16T09:35:27;7.57;;;2.42;;
45041;SDS011;30779;52.096;4.410;2022-10-16T09:41:34;8.18;;;1.92;;
45041;SDS011;30779;52.096;4.410;2022-10-16T09:44:36;5.72;;;1.80;;
45041;SDS011;30779;52.096;4.410;2022-10-16T09:47:39;8.85;;;2.58;;
45041;SDS011;30779;52.096;4.410;2022-10-16T09:50:41;12.50;;;2.17;;
45041;SDS011;30779;52.096;4.410;2022-10-16T09:53:43;6.00;;;2.17;;
45041;SDS011;30779;52.096;4.410;2022-10-16T09:56:44;10.82;;;2.30;;
45041;SDS011;30779;52.096;4.410;2022-10-16T09:59:50;7.45;;;2.10;;
45041;SDS011;30779;52.096;4.410;2022-10-16T10:02:51;6.45;;;1.52;;
45041;SDS011;30779;52.096;4.410;2022-10-16T10:05:53;10.05;;;2.35;;
45041;SDS011;30779;52.096;4.410;2022-10-16T10:15:04;8.23;;;2.40;;
45041;SDS011;30779;52.096;4.410;2022-10-16T10:18:16;7.80;;;2.00;;
45041;SDS011;30779;52.096;4.410;2022-10-16T10:21:18;8.35;;;1.98;;
45041;SDS011;30779;52.096;4.410;2022-10-16T10:24:19;6.60;;;1.80;;
45041;SDS011;30779;52.096;4.410;2022-10-16T10:27:20;9.00;;;1.90;;
45041;SDS011;30779;52.096;4.410;2022-10-16T10:33:31;6.10;;;1.48;;
45041;SDS011;30779;52.096;4.410;2022-10-16T10:36:39;9.93;;;2.25;;
45041;SDS011;30779;52.096;4.410;2022-10-16T10:39:43;8.90;;;1.92;;
45041;SDS011;30779;52.096;4.410;2022-10-16T10:42:50;10.48;;;2.10;;
45041;SDS011;30779;52.096;4.410;2022-10-16T10:45:52;10.30;;;1.67;;
45041;SDS011;30779;52.096;4.410;2022-10-16T10:49:03;9.60;;;2.20;;
45041;SDS011;30779;52.096;4.410;2022-10-16T10:55:28;10.40;;;2.40;;
45041;SDS011;30779;52.096;4.410;2022-10-16T10:58:39;8.00;;;1.83;;
45041;SDS011;30779;52.096;4.410;2022-10-16T11:01:56;6.82;;;2.00;;
45041;SDS011;30779;52.096;4.410;2022-10-16T11:08:20;11.15;;;2.33;;
45041;SDS011;30779;52.096;4.410;2022-10-16T11:14:40;6.35;;;1.90;;
45041;SDS011;30779;52.096;4.410;2022-10-16T11:20:54;7.78;;;1.70;;
45041;SDS011;30779;52.096;4.410;2022-10-16T11:26:57;7.90;;;2.05;;
45041;SDS011;30779;52.096;4.410;2022-10-16T11:42:09;6.93;;;1.88;;
45041;SDS011;30779;52.096;4.410;2022-10-16T11:45:21;8.57;;;2.50;;
45041;SDS011;30779;52.096;4.410;2022-10-16T11:55:17;8.88;;;2.15;;
45041;SDS011;30779;52.096;4.410;2022-10-16T11:58:29;9.23;;;2.35;;
45041;SDS011;30779;52.096;4.410;2022-10-16T12:04:38;7.55;;;1.83;;
45041;SDS011;30779;52.096;4.410;2022-10-16T12:07:55;7.28;;;2.17;;
45041;SDS011;30779;52.096;4.410;2022-10-16T12:11:59;6.93;;;1.42;;
45041;SDS011;30779;52.096;4.410;2022-10-16T12:17:36;7.18;;;1.50;;
45041;SDS011;30779;52.096;4.410;2022-10-16T12:20:38;8.25;;;1.70;;
45041;SDS011;30779;52.096;4.410;2022-10-16T12:23:50;5.00;;;1.52;;
45041;SDS011;30779;52.096;4.410;2022-10-16T12:26:51;4.88;;;1.90;;
45041;SDS011;30779;52.096;4.410;2022-10-16T12:29:59;7.55;;;2.00;;
45041;SDS011;30779;52.096;4.410;2022-10-16T12:33:23;6.13;;;1.88;;
45041;SDS011;30779;52.096;4.410;2022-10-16T12:36:29;6.05;;;2.40;;
45041;SDS011;30779;52.096;4.410;2022-10-16T12:39:31;7.72;;;2.55;;
45041;SDS011;30779;52.096;4.410;2022-10-16T12:42:33;5.15;;;1.42;;
45041;SDS011;30779;52.096;4.410;2022-10-16T12:45:34;12.15;;;8.57;;
45041;SDS011;30779;52.096;4.410;2022-10-16T12:48:39;10.45;;;1.85;;
45041;SDS011;30779;52.096;4.410;2022-10-16T12:51:42;6.68;;;2.00;;
45041;SDS011;30779;52.096;4.410;2022-10-16T12:54:43;6.35;;;2.28;;
45041;SDS011;30779;52.096;4.410;2022-10-16T12:57:58;8.38;;;1.40;;
45041;SDS011;30779;52.096;4.410;2022-10-16T13:01:13;5.65;;;1.33;;
45041;SDS011;30779;52.096;4.410;2022-10-16T13:07:33;4.88;;;1.65;;
45041;SDS011;30779;52.096;4.410;2022-10-16T13:26:19;9.25;;;2.03;;
45041;SDS011;30779;52.096;4.410;2022-10-16T13:29:22;7.15;;;2.25;;
45041;SDS011;30779;52.096;4.410;2022-10-16T13:32:23;8.32;;;2.05;;
45041;SDS011;30779;52.096;4.410;2022-10-16T13:35:26;6.55;;;1.80;;
45041;SDS011;30779;52.096;4.410;2022-10-16T13:38:29;11.93;;;2.42;;
45041;SDS011;30779;52.096;4.410;2022-10-16T13:41:32;7.95;;;1.98;;
45041;SDS011;30779;52.096;4.410;2022-10-16T13:44:40;7.75;;;1.90;;
45041;SDS011;30779;52.096;4.410;2022-10-16T13:47:42;9.85;;;2.67;;
45041;SDS011;30779;52.096;4.410;2022-10-16T13:50:43;8.23;;;1.90;;
45041;SDS011;30779;52.096;4.410;2022-10-16T13:53:44;6.78;;;1.95;;
45041;SDS011;30779;52.096;4.410;2022-10-16T13:56:46;10.00;;;2.63;;
45041;SDS011;30779;52.096;4.410;2022-10-16T13:59:47;9.65;;;2.97;;
45041;SDS011;30779;52.096;4.410;2022-10-16T14:02:57;7.45;;;3.55;;
45041;SDS011;30779;52.096;4.410;2022-10-16T14:06:00;6.97;;;3.17;;
45041;SDS011;30779;52.096;4.410;2022-10-16T14:09:05;11.07;;;2.90;;
45041;SDS011;30779;52.096;4.410;2022-10-16T14:12:08;9.27;;;2.40;;
45041;SDS011;30779;52.096;4.410;2022-10-16T14:15:16;9.85;;;2.35;;
45041;SDS011;30779;52.096;4.410;2022-10-16T14:18:21;5.43;;;2.45;;
45041;SDS011;30779;52.096;4.410;2022-10-16T14:21:23;12.70;;;2.40;;
45041;SDS011;30779;52.096;4.410;2022-10-16T14:24:32;6.45;;;1.58;;
45041;SDS011;30779;52.096;4.410;2022-10-16T14:27:34;9.32;;;2.10;;
45041;SDS011;30779;52.096;4.410;2022-10-16T14:30:35;8.65;;;2.03;;
45041;SDS011;30779;52.096;4.410;2022-10-16T14:33:36;8.40;;;2.17;;
45041;SDS011;30779;52.096;4.410;2022-10-16T14:36:40;7.35;;;1.77;;
45041;SDS011;30779;52.096;4.410;2022-10-16T14:39:41;16.58;;;2.08;;
45041;SDS011;30779;52.096;4.410;2022-10-16T14:42:42;12.27;;;2.22;;
45041;SDS011;30779;52.096;4.410;2022-10-16T14:45:49;11.05;;;1.88;;
45041;SDS011;30779;52.096;4.410;2022-10-16T14:48:53;7.18;;;1.80;;
45041;SDS011;30779;52.096;4.410;2022-10-16T14:51:55;8.13;;;3.28;;
45041;SDS011;30779;52.096;4.410;2022-10-16T14:54:56;9.15;;;3.75;;
45041;SDS011;30779;52.096;4.410;2022-10-16T14:57:57;9.43;;;2.33;;
45041;SDS011;30779;52.096;4.410;2022-10-16T15:00:58;13.82;;;3.17;;
45041;SDS011;30779;52.096;4.410;2022-10-16T15:03:59;7.15;;;1.48;;
45041;SDS011;30779;52.096;4.410;2022-10-16T15:07:00;9.43;;;2.45;;
45041;SDS011;30779;52.096;4.410;2022-10-16T15:10:01;7.38;;;2.47;;
45041;SDS011;30779;52.096;4.410;2022-10-16T15:13:02;8.23;;;2.45;;
45041;SDS011;30779;52.096;4.410;2022-10-16T15:16:03;5.57;;;2.08;;
45041;SDS011;30779;52.096;4.410;2022-10-16T15:19:04;6.75;;;1.95;;
45041;SDS011;30779;52.096;4.410;2022-10-16T15:22:05;11.90;;;3.80;;
45041;SDS011;30779;52.096;4.410;2022-10-16T15:25:15;10.15;;;2.78;;
45041;SDS011;30779;52.096;4.410;2022-10-16T15:28:21;9.25;;;2.03;;
45041;SDS011;30779;52.096;4.410;2022-10-16T15:31:22;9.63;;;2.47;;
45041;SDS011;30779;52.096;4.410;2022-10-16T15:34:23;9.38;;;3.33;;
45041;SDS011;30779;52.096;4.410;2022-10-16T15:37:24;9.55;;;2.38;;
45041;SDS011;30779;52.096;4.410;2022-10-16T15:40:25;5.22;;;2.13;;
45041;SDS011;30779;52.096;4.410;2022-10-16T15:43:26;9.68;;;2.72;;
45041;SDS011;30779;52.096;4.410;2022-10-16T15:46:28;8.15;;;2.30;;
45041;SDS011;30779;52.096;4.410;2022-10-16T15:49:30;7.78;;;2.40;;
45041;SDS011;30779;52.096;4.410;2022-10-16T15:52:31;12.40;;;3.20;;
45041;SDS011;30779;52.096;4.410;2022-10-16T15:55:33;11.13;;;4.80;;
45041;SDS011;30779;52.096;4.410;2022-10-16T16:01:40;7.45;;;2.92;;
45041;SDS011;30779;52.096;4.410;2022-10-16T16:04:41;8.73;;;2.30;;
45041;SDS011;30779;52.096;4.410;2022-10-16T16:07:42;7.75;;;2.50;;
45041;SDS011;30779;52.096;4.410;2022-10-16T16:10:43;12.27;;;3.28;;
45041;SDS011;30779;52.096;4.410;2022-10-16T16:13:44;9.73;;;2.63;;
45041;SDS011;30779;52.096;4.410;2022-10-16T16:16:45;11.75;;;4.18;;
45041;SDS011;30779;52.096;4.410;2022-10-16T16:19:49;7.40;;;2.95;;
45041;SDS011;30779;52.096;4.410;2022-10-16T16:22:51;6.40;;;2.17;;
45041;SDS011;30779;52.096;4.410;2022-10-16T16:26:02;12.60;;;3.03;;
45041;SDS011;30779;52.096;4.410;2022-10-16T16:29:03;9.15;;;2.45;;
45041;SDS011;30779;52.096;4.410;2022-10-16T16:32:04;6.60;;;2.13;;
45041;SDS011;30779;52.096;4.410;2022-10-16T16:35:05;6.05;;;2.00;;
45041;SDS011;30779;52.096;4.410;2022-10-16T16:38:06;12.65;;;3.80;;
45041;SDS011;30779;52.096;4.410;2022-10-16T16:41:11;11.20;;;2.63;;
45041;SDS011;30779;52.096;4.410;2022-10-16T16:44:12;6.22;;;2.67;;
45041;SDS011;30779;52.096;4.410;2022-10-16T16:47:14;8.75;;;2.45;;
45041;SDS011;30779;52.096;4.410;2022-10-16T16:50:15;8.05;;;2.38;;
45041;SDS011;30779;52.096;4.410;2022-10-16T16:53:16;10.73;;;3.40;;
45041;SDS011;30779;52.096;4.410;2022-10-16T16:56:17;10.02;;;2.50;;
45041;SDS011;30779;52.096;4.410;2022-10-16T16:59:19;8.68;;;2.55;;
45041;SDS011;30779;52.096;4.410;2022-10-16T17:02:21;7.78;;;2.25;;
45041;SDS011;30779;52.096;4.410;2022-10-16T17:05:22;12.73;;;7.25;;
45041;SDS011;30779;52.096;4.410;2022-10-16T17:08:24;13.13;;;5.25;;
45041;SDS011;30779;52.096;4.410;2022-10-16T17:11:25;12.25;;;3.83;;
45041;SDS011;30779;52.096;4.410;2022-10-16T17:14:26;10.15;;;4.30;;
45041;SDS011;30779;52.096;4.410;2022-10-16T17:17:27;10.23;;;4.72;;
45041;SDS011;30779;52.096;4.410;2022-10-16T17:20:28;9.18;;;5.40;;
45041;SDS011;30779;52.096;4.410;2022-10-16T17:23:29;16.52;;;4.72;;
45041;SDS011;30779;52.096;4.410;2022-10-16T17:26:31;17.23;;;4.88;;
45041;SDS011;30779;52.096;4.410;2022-10-16T17:29:32;14.07;;;5.50;;
45041;SDS011;30779;52.096;4.410;2022-10-16T17:32:33;10.02;;;4.35;;
45041;SDS011;30779;52.096;4.410;2022-10-16T17:35:44;25.13;;;6.80;;
45041;SDS011;30779;52.096;4.410;2022-10-16T17:38:45;8.70;;;4.57;;
45041;SDS011;30779;52.096;4.410;2022-10-16T17:41:47;8.07;;;3.50;;
45041;SDS011;30779;52.096;4.410;2022-10-16T17:44:48;8.55;;;3.33;;
45041;SDS011;30779;52.096;4.410;2022-10-16T17:47:49;12.93;;;3.75;;
45041;SDS011;30779;52.096;4.410;2022-10-16T17:50:50;7.53;;;2.72;;
45041;SDS011;30779;52.096;4.410;2022-10-16T17:53:52;7.90;;;3.78;;
45041;SDS011;30779;52.096;4.410;2022-10-16T17:56:54;9.35;;;3.50;;
45041;SDS011;30779;52.096;4.410;2022-10-16T17:59:55;7.32;;;2.70;;
45041;SDS011;30779;52.096;4.410;2022-10-16T18:02:56;7.53;;;2.85;;
45041;SDS011;30779;52.096;4.410;2022-10-16T18:05:57;8.13;;;3.42;;
45041;SDS011;30779;52.096;4.410;2022-10-16T18:09:01;9.65;;;3.63;;
45041;SDS011;30779;52.096;4.410;2022-10-16T18:12:03;9.70;;;3.30;;
45041;SDS011;30779;52.096;4.410;2022-10-16T18:15:04;6.00;;;3.47;;
45041;SDS011;30779;52.096;4.410;2022-10-16T18:18:05;9.55;;;3.80;;
45041;SDS011;30779;52.096;4.410;2022-10-16T18:21:07;10.32;;;4.78;;
45041;SDS011;30779;52.096;4.410;2022-10-16T18:24:10;13.02;;;4.97;;
45041;SDS011;30779;52.096;4.410;2022-10-16T18:27:11;16.67;;;4.93;;
45041;SDS011;30779;52.096;4.410;2022-10-16T18:30:12;11.43;;;4.68;;
45041;SDS011;30779;52.096;4.410;2022-10-16T18:33:13;10.65;;;5.03;;
45041;SDS011;30779;52.096;4.410;2022-10-16T18:36:14;9.10;;;4.70;;
45041;SDS011;30779;52.096;4.410;2022-10-16T18:39:16;14.27;;;6.65;;
45041;SDS011;30779;52.096;4.410;2022-10-16T18:42:17;23.58;;;9.80;;
45041;SDS011;30779;52.096;4.410;2022-10-16T18:45:18;11.18;;;7.63;;
45041;SDS011;30779;52.096;4.410;2022-10-16T18:48:19;15.00;;;7.50;;
45041;SDS011;30779;52.096;4.410;2022-10-16T18:51:25;13.82;;;7.13;;
45041;SDS011;30779;52.096;4.410;2022-10-16T18:54:26;11.35;;;6.22;;
45041;SDS011;30779;52.096;4.410;2022-10-16T18:57:27;13.95;;;5.90;;
45041;SDS011;30779;52.096;4.410;2022-10-16T19:00:29;13.98;;;6.43;;
45041;SDS011;30779;52.096;4.410;2022-10-16T19:03:30;14.20;;;7.20;;
45041;SDS011;30779;52.096;4.410;2022-10-16T19:06:32;14.25;;;6.03;;
45041;SDS011;30779;52.096;4.410;2022-10-16T19:09:34;12.60;;;6.15;;
45041;SDS011;30779;52.096;4.410;2022-10-16T19:12:35;15.95;;;6.47;;
45041;SDS011;30779;52.096;4.410;2022-10-16T19:15:42;15.48;;;6.70;;
45041;SDS011;30779;52.096;4.410;2022-10-16T19:18:43;13.43;;;5.50;;
45041;SDS011;30779;52.096;4.410;2022-10-16T19:21:44;14.57;;;5.78;;
45041;SDS011;30779;52.096;4.410;2022-10-16T19:24:47;12.93;;;5.68;;
45041;SDS011;30779;52.096;4.410;2022-10-16T19:27:50;11.20;;;5.18;;
45041;SDS011;30779;52.096;4.410;2022-10-16T19:30:51;9.35;;;4.50;;
45041;SDS011;30779;52.096;4.410;2022-10-16T19:33:53;14.55;;;5.43;;
45041;SDS011;30779;52.096;4.410;2022-10-16T19:36:55;13.93;;;5.18;;
45041;SDS011;30779;52.096;4.410;2022-10-16T19:39:56;13.07;;;5.60;;
45041;SDS011;30779;52.096;4.410;2022-10-16T19:43:01;12.10;;;4.60;;
45041;SDS011;30779;52.096;4.410;2022-10-16T19:46:06;9.82;;;5.25;;
45041;SDS011;30779;52.096;4.410;2022-10-16T19:49:08;12.75;;;5.95;;
45041;SDS011;30779;52.096;4.410;2022-10-16T19:52:17;11.60;;;5.82;;
45041;SDS011;30779;52.096;4.410;2022-10-16T19:55:21;20.85;;;7.72;;
45041;SDS011;30779;52.096;4.410;2022-10-16T19:58:22;13.77;;;6.80;;
45041;SDS011;30779;52.096;4.410;2022-10-16T20:01:24;15.52;;;6.55;;
45041;SDS011;30779;52.096;4.410;2022-10-16T20:04:25;14.52;;;7.22;;
45041;SDS011;30779;52.096;4.410;2022-10-16T20:07:26;16.95;;;6.97;;